sensor_id;sensor_type;location;lat;lon;timestamp;temperature;humidity
9410;DHT22;4744;52.576;13.568;2022-11-23T00:01:55;1.30;1.00
9410;DHT22;4744;52.576;13.568;2022-11-23T00:04:22;1.30;1.00
9410;DHT22;4744;52.576;13.568;2022-11-23T00:06:50;1.30;1.00
9410;DHT22;4744;52.576;13.568;2022-11-23T00:09:17;1.30;1.00
9410;DHT22;4744;52.576;13.568;2022-11-23T00:11:44;1.20;1.00
9410;DHT22;4744;52.576;13.568;2022-11-23T00:14:12;1.20;1.00
9410;DHT22;4744;52.576;13.568;2022-11-23T00:16:39;1.20;1.00
9410;DHT22;4744;52.576;13.568;2022-11-23T00:19:07;1.20;1.00
9410;DHT22;4744;52.576;13.568;2022-11-23T00:21:34;1.20;1.00
9410;DHT22;4744;52.576;13.568;2022-11-23T00:24:01;1.20;1.00
9410;DHT22;4744;52.576;13.568;2022-11-23T00:26:28;1.30;1.00
9410;DHT22;4744;52.576;13.568;2022-11-23T00:28:55;1.30;1.00
9410;DHT22;4744;52.576;13.568;2022-11-23T00:31:24;1.30;1.00
9410;DHT22;4744;52.576;13.568;2022-11-23T00:33:52;1.30;1.00
9410;DHT22;4744;52.576;13.568;2022-11-23T00:36:20;1.20;1.00
9410;DHT22;4744;52.576;13.568;2022-11-23T00:38:48;1.20;1.00
9410;DHT22;4744;52.576;13.568;2022-11-23T00:41:17;1.20;1.00
9410;DHT22;4744;52.576;13.568;2022-11-23T00:43:44;1.20;1.00
9410;DHT22;4744;52.576;13.568;2022-11-23T00:46:13;1.20;1.00
9410;DHT22;4744;52.576;13.568;2022-11-23T00:48:42;1.20;1.00
9410;DHT22;4744;52.576;13.568;2022-11-23T00:51:11;1.20;1.00
9410;DHT22;4744;52.576;13.568;2022-11-23T00:53:38;1.20;1.00
9410;DHT22;4744;52.576;13.568;2022-11-23T00:56:05;1.20;1.00
9410;DHT22;4744;52.576;13.568;2022-11-23T00:58:33;1.20;1.00
9410;DHT22;4744;52.576;13.568;2022-11-23T01:01:05;1.10;1.00
9410;DHT22;4744;52.576;13.568;2022-11-23T01:03:33;1.20;1.00
9410;DHT22;4744;52.576;13.568;2022-11-23T01:06:04;1.10;1.00
9410;DHT22;4744;52.576;13.568;2022-11-23T01:08:31;1.20;1.00
9410;DHT22;4744;52.576;13.568;2022-11-23T01:10:59;1.20;1.00
9410;DHT22;4744;52.576;13.568;2022-11-23T01:13:26;1.20;1.00
9410;DHT22;4744;52.576;13.568;2022-11-23T01:15:53;1.20;1.00
9410;DHT22;4744;52.576;13.568;2022-11-23T01:18:21;1.20;1.00
9410;DHT22;4744;52.576;13.568;2022-11-23T01:20:48;1.20;1.00
9410;DHT22;4744;52.576;13.568;2022-11-23T01:23:16;1.20;1.00
9410;DHT22;4744;52.576;13.568;2022-11-23T01:25:43;1.20;1.00
9410;DHT22;4744;52.576;13.568;2022-11-23T01:28:10;1.20;1.00
9410;DHT22;4744;52.576;13.568;2022-11-23T01:30:37;1.20;1.00
9410;DHT22;4744;52.576;13.568;2022-11-23T01:33:04;1.20;1.00
9410;DHT22;4744;52.576;13.568;2022-11-23T01:35:31;1.20;1.00
9410;DHT22;4744;52.576;13.568;2022-11-23T01:37:58;1.30;1.00
9410;DHT22;4744;52.576;13.568;2022-11-23T01:40:26;1.30;1.00
9410;DHT22;4744;52.576;13.568;2022-11-23T01:42:55;1.30;1.00
9410;DHT22;4744;52.576;13.568;2022-11-23T01:45:35;1.30;1.00
9410;DHT22;4744;52.576;13.568;2022-11-23T01:48:05;1.30;1.00
9410;DHT22;4744;52.576;13.568;2022-11-23T01:50:34;1.30;1.00
9410;DHT22;4744;52.576;13.568;2022-11-23T01:53:01;1.30;1.00
9410;DHT22;4744;52.576;13.568;2022-11-23T01:55:30;1.30;1.00
9410;DHT22;4744;52.576;13.568;2022-11-23T01:57:57;1.30;1.00
9410;DHT22;4744;52.576;13.568;2022-11-23T02:00:24;1.30;1.00
9410;DHT22;4744;52.576;13.568;2022-11-23T02:02:54;1.30;1.00
9410;DHT22;4744;52.576;13.568;2022-11-23T02:05:24;1.30;1.00
9410;DHT22;4744;52.576;13.568;2022-11-23T02:07:53;1.40;1.00
9410;DHT22;4744;52.576;13.568;2022-11-23T02:10:21;1.40;1.00
9410;DHT22;4744;52.576;13.568;2022-11-23T02:12:50;1.50;1.00
9410;DHT22;4744;52.576;13.568;2022-11-23T02:15:17;1.50;1.00
9410;DHT22;4744;52.576;13.568;2022-11-23T02:17:45;1.40;1.00
9410;DHT22;4744;52.576;13.568;2022-11-23T02:20:13;1.40;1.00
9410;DHT22;4744;52.576;13.568;2022-11-23T02:22:48;1.50;1.00
9410;DHT22;4744;52.576;13.568;2022-11-23T02:25:26;1.50;1.00
9410;DHT22;4744;52.576;13.568;2022-11-23T02:27:57;1.50;1.00
9410;DHT22;4744;52.576;13.568;2022-11-23T02:30:24;1.50;1.00
9410;DHT22;4744;52.576;13.568;2022-11-23T02:32:52;1.50;1.00
9410;DHT22;4744;52.576;13.568;2022-11-23T02:35:19;1.50;1.00
9410;DHT22;4744;52.576;13.568;2022-11-23T02:37:46;1.50;1.00
9410;DHT22;4744;52.576;13.568;2022-11-23T02:40:21;1.50;1.00
9410;DHT22;4744;52.576;13.568;2022-11-23T02:42:49;1.50;1.00
9410;DHT22;4744;52.576;13.568;2022-11-23T02:45:26;1.50;1.00
9410;DHT22;4744;52.576;13.568;2022-11-23T02:47:54;1.50;1.00
9410;DHT22;4744;52.576;13.568;2022-11-23T02:50:21;1.50;1.00
9410;DHT22;4744;52.576;13.568;2022-11-23T02:52:48;1.60;1.00
9410;DHT22;4744;52.576;13.568;2022-11-23T02:55:15;1.60;1.00
9410;DHT22;4744;52.576;13.568;2022-11-23T02:57:42;1.60;1.00
9410;DHT22;4744;52.576;13.568;2022-11-23T03:00:10;1.60;1.00
9410;DHT22;4744;52.576;13.568;2022-11-23T03:02:38;1.50;1.00
9410;DHT22;4744;52.576;13.568;2022-11-23T03:05:06;1.50;1.00
9410;DHT22;4744;52.576;13.568;2022-11-23T03:07:33;1.50;1.00
9410;DHT22;4744;52.576;13.568;2022-11-23T03:10:00;1.50;1.00
9410;DHT22;4744;52.576;13.568;2022-11-23T03:12:27;1.40;1.00
9410;DHT22;4744;52.576;13.568;2022-11-23T03:14:54;1.40;1.00
9410;DHT22;4744;52.576;13.568;2022-11-23T03:17:21;1.40;1.00
9410;DHT22;4744;52.576;13.568;2022-11-23T03:19:49;1.40;1.00
9410;DHT22;4744;52.576;13.568;2022-11-23T03:22:16;1.30;1.00
9410;DHT22;4744;52.576;13.568;2022-11-23T03:24:43;1.30;1.00
9410;DHT22;4744;52.576;13.568;2022-11-23T03:27:10;1.30;1.00
9410;DHT22;4744;52.576;13.568;2022-11-23T03:29:37;1.30;1.00
9410;DHT22;4744;52.576;13.568;2022-11-23T03:32:04;1.30;1.00
9410;DHT22;4744;52.576;13.568;2022-11-23T03:34:31;1.30;1.00
9410;DHT22;4744;52.576;13.568;2022-11-23T03:37:00;1.20;1.00
9410;DHT22;4744;52.576;13.568;2022-11-23T03:39:27;1.20;1.00
9410;DHT22;4744;52.576;13.568;2022-11-23T03:41:54;1.20;1.00
9410;DHT22;4744;52.576;13.568;2022-11-23T03:44:20;1.20;1.00
9410;DHT22;4744;52.576;13.568;2022-11-23T03:46:47;1.20;1.00
9410;DHT22;4744;52.576;13.568;2022-11-23T03:49:16;1.20;1.00
9410;DHT22;4744;52.576;13.568;2022-11-23T03:51:43;1.20;1.00
9410;DHT22;4744;52.576;13.568;2022-11-23T03:54:11;1.20;1.00
9410;DHT22;4744;52.576;13.568;2022-11-23T03:56:38;1.20;1.00
9410;DHT22;4744;52.576;13.568;2022-11-23T03:59:05;1.30;1.00
9410;DHT22;4744;52.576;13.568;2022-11-23T04:01:31;1.30;1.00
9410;DHT22;4744;52.576;13.568;2022-11-23T04:03:58;1.30;1.00
9410;DHT22;4744;52.576;13.568;2022-11-23T04:06:25;1.20;1.00
9410;DHT22;4744;52.576;13.568;2022-11-23T04:08:52;1.20;1.00
9410;DHT22;4744;52.576;13.568;2022-11-23T04:11:20;1.20;1.00
9410;DHT22;4744;52.576;13.568;2022-11-23T04:13:47;1.20;1.00
9410;DHT22;4744;52.576;13.568;2022-11-23T04:16:15;1.10;1.00
9410;DHT22;4744;52.576;13.568;2022-11-23T04:18:42;1.10;1.00
9410;DHT22;4744;52.576;13.568;2022-11-23T04:21:09;1.10;1.00
9410;DHT22;4744;52.576;13.568;2022-11-23T04:23:35;1.10;1.00
9410;DHT22;4744;52.576;13.568;2022-11-23T04:26:02;1.00;1.00
9410;DHT22;4744;52.576;13.568;2022-11-23T04:28:31;1.00;1.00
9410;DHT22;4744;52.576;13.568;2022-11-23T04:30:58;1.00;1.00
9410;DHT22;4744;52.576;13.568;2022-11-23T04:33:25;1.00;1.00
9410;DHT22;4744;52.576;13.568;2022-11-23T04:35:52;1.00;1.00
9410;DHT22;4744;52.576;13.568;2022-11-23T04:38:18;1.00;1.00
9410;DHT22;4744;52.576;13.568;2022-11-23T04:40:46;1.00;1.00
9410;DHT22;4744;52.576;13.568;2022-11-23T04:43:13;1.00;1.00
9410;DHT22;4744;52.576;13.568;2022-11-23T04:45:42;1.00;1.00
9410;DHT22;4744;52.576;13.568;2022-11-23T04:48:09;1.00;1.00
9410;DHT22;4744;52.576;13.568;2022-11-23T04:50:36;1.00;1.00
9410;DHT22;4744;52.576;13.568;2022-11-23T04:53:04;1.00;1.00
9410;DHT22;4744;52.576;13.568;2022-11-23T04:55:30;1.00;1.00
9410;DHT22;4744;52.576;13.568;2022-11-23T04:57:57;1.00;1.00
9410;DHT22;4744;52.576;13.568;2022-11-23T05:00:25;0.90;1.00
9410;DHT22;4744;52.576;13.568;2022-11-23T05:02:53;0.90;1.00
9410;DHT22;4744;52.576;13.568;2022-11-23T05:05:20;0.90;1.00
9410;DHT22;4744;52.576;13.568;2022-11-23T05:07:47;0.90;1.00
9410;DHT22;4744;52.576;13.568;2022-11-23T05:10:14;0.90;1.00
9410;DHT22;4744;52.576;13.568;2022-11-23T05:12:41;1.00;1.00
9410;DHT22;4744;52.576;13.568;2022-11-23T05:15:11;0.90;1.00
9410;DHT22;4744;52.576;13.568;2022-11-23T05:17:39;0.90;1.00
9410;DHT22;4744;52.576;13.568;2022-11-23T05:20:08;0.90;1.00
9410;DHT22;4744;52.576;13.568;2022-11-23T05:22:35;0.90;1.00
9410;DHT22;4744;52.576;13.568;2022-11-23T05:25:02;0.90;1.00
9410;DHT22;4744;52.576;13.568;2022-11-23T05:27:29;0.80;1.00
9410;DHT22;4744;52.576;13.568;2022-11-23T05:29:56;0.90;1.00
9410;DHT22;4744;52.576;13.568;2022-11-23T05:32:23;0.90;1.00
9410;DHT22;4744;52.576;13.568;2022-11-23T05:34:50;1.00;1.00
9410;DHT22;4744;52.576;13.568;2022-11-23T05:37:18;0.90;1.00
9410;DHT22;4744;52.576;13.568;2022-11-23T05:39:48;0.90;1.00
9410;DHT22;4744;52.576;13.568;2022-11-23T05:42:15;0.90;1.00
9410;DHT22;4744;52.576;13.568;2022-11-23T05:44:42;0.90;1.00
9410;DHT22;4744;52.576;13.568;2022-11-23T05:47:09;0.90;1.00
9410;DHT22;4744;52.576;13.568;2022-11-23T05:49:36;0.90;1.00
9410;DHT22;4744;52.576;13.568;2022-11-23T05:52:03;0.90;1.00
9410;DHT22;4744;52.576;13.568;2022-11-23T05:54:32;0.90;1.00
9410;DHT22;4744;52.576;13.568;2022-11-23T05:56:58;0.90;1.00
9410;DHT22;4744;52.576;13.568;2022-11-23T05:59:25;0.90;1.00
9410;DHT22;4744;52.576;13.568;2022-11-23T06:01:52;0.90;1.00
9410;DHT22;4744;52.576;13.568;2022-11-23T06:04:19;0.90;1.00
9410;DHT22;4744;52.576;13.568;2022-11-23T06:06:46;0.90;1.00
9410;DHT22;4744;52.576;13.568;2022-11-23T06:09:13;0.90;1.00
9410;DHT22;4744;52.576;13.568;2022-11-23T06:11:41;0.90;1.00
9410;DHT22;4744;52.576;13.568;2022-11-23T06:14:09;0.80;1.00
9410;DHT22;4744;52.576;13.568;2022-11-23T06:16:36;0.80;1.00
9410;DHT22;4744;52.576;13.568;2022-11-23T06:19:03;0.80;1.00
9410;DHT22;4744;52.576;13.568;2022-11-23T06:21:30;0.80;1.00
9410;DHT22;4744;52.576;13.568;2022-11-23T06:23:57;0.70;1.00
9410;DHT22;4744;52.576;13.568;2022-11-23T06:26:24;0.70;1.00
9410;DHT22;4744;52.576;13.568;2022-11-23T06:28:53;0.70;1.00
9410;DHT22;4744;52.576;13.568;2022-11-23T06:31:20;0.70;1.00
9410;DHT22;4744;52.576;13.568;2022-11-23T06:33:47;0.70;1.00
9410;DHT22;4744;52.576;13.568;2022-11-23T06:36:14;0.70;1.00
9410;DHT22;4744;52.576;13.568;2022-11-23T06:38:41;0.60;1.00
9410;DHT22;4744;52.576;13.568;2022-11-23T06:41:08;0.60;1.00
9410;DHT22;4744;52.576;13.568;2022-11-23T06:43:35;0.50;1.00
9410;DHT22;4744;52.576;13.568;2022-11-23T06:46:04;0.50;1.00
9410;DHT22;4744;52.576;13.568;2022-11-23T06:48:32;0.50;1.00
9410;DHT22;4744;52.576;13.568;2022-11-23T06:50:59;0.50;1.00
9410;DHT22;4744;52.576;13.568;2022-11-23T06:53:27;0.40;1.00
9410;DHT22;4744;52.576;13.568;2022-11-23T06:55:57;0.40;1.00
9410;DHT22;4744;52.576;13.568;2022-11-23T06:58:25;0.40;1.00
9410;DHT22;4744;52.576;13.568;2022-11-23T07:00:52;0.40;1.00
9410;DHT22;4744;52.576;13.568;2022-11-23T07:03:22;0.40;1.00
9410;DHT22;4744;52.576;13.568;2022-11-23T07:05:49;0.40;1.00
9410;DHT22;4744;52.576;13.568;2022-11-23T07:08:16;0.40;1.00
9410;DHT22;4744;52.576;13.568;2022-11-23T07:10:43;0.40;1.00
9410;DHT22;4744;52.576;13.568;2022-11-23T07:13:12;0.40;1.00
9410;DHT22;4744;52.576;13.568;2022-11-23T07:15:40;0.30;1.00
9410;DHT22;4744;52.576;13.568;2022-11-23T07:18:09;0.40;1.00
9410;DHT22;4744;52.576;13.568;2022-11-23T07:20:38;0.40;1.00
9410;DHT22;4744;52.576;13.568;2022-11-23T07:23:07;0.40;1.00
9410;DHT22;4744;52.576;13.568;2022-11-23T07:25:37;0.40;1.90
9410;DHT22;4744;52.576;13.568;2022-11-23T07:28:06;0.40;1.00
9410;DHT22;4744;52.576;13.568;2022-11-23T07:30:33;0.40;1.00
9410;DHT22;4744;52.576;13.568;2022-11-23T07:33:02;0.30;1.00
9410;DHT22;4744;52.576;13.568;2022-11-23T07:35:30;0.30;1.00
9410;DHT22;4744;52.576;13.568;2022-11-23T07:37:59;0.30;1.00
9410;DHT22;4744;52.576;13.568;2022-11-23T07:40:26;0.30;1.00
9410;DHT22;4744;52.576;13.568;2022-11-23T07:42:57;0.30;1.00
9410;DHT22;4744;52.576;13.568;2022-11-23T07:45:28;0.30;1.00
9410;DHT22;4744;52.576;13.568;2022-11-23T07:47:59;0.30;1.00
9410;DHT22;4744;52.576;13.568;2022-11-23T07:50:26;0.30;1.00
9410;DHT22;4744;52.576;13.568;2022-11-23T07:52:54;0.30;1.00
9410;DHT22;4744;52.576;13.568;2022-11-23T07:55:22;0.30;1.00
9410;DHT22;4744;52.576;13.568;2022-11-23T07:57:51;0.40;1.00
9410;DHT22;4744;52.576;13.568;2022-11-23T08:00:19;0.40;1.00
9410;DHT22;4744;52.576;13.568;2022-11-23T08:02:47;0.50;1.00
9410;DHT22;4744;52.576;13.568;2022-11-23T08:05:14;0.50;1.00
9410;DHT22;4744;52.576;13.568;2022-11-23T08:07:42;0.60;1.00
9410;DHT22;4744;52.576;13.568;2022-11-23T08:10:10;0.60;1.00
9410;DHT22;4744;52.576;13.568;2022-11-23T08:12:38;0.60;1.00
9410;DHT22;4744;52.576;13.568;2022-11-23T08:15:06;0.70;1.00
9410;DHT22;4744;52.576;13.568;2022-11-23T08:17:33;0.70;1.00
9410;DHT22;4744;52.576;13.568;2022-11-23T08:20:00;0.80;1.00
9410;DHT22;4744;52.576;13.568;2022-11-23T08:22:27;0.80;1.00
9410;DHT22;4744;52.576;13.568;2022-11-23T08:24:54;0.90;1.00
9410;DHT22;4744;52.576;13.568;2022-11-23T08:27:21;1.00;1.00
9410;DHT22;4744;52.576;13.568;2022-11-23T08:29:49;1.00;1.00
9410;DHT22;4744;52.576;13.568;2022-11-23T08:32:16;1.00;1.00
9410;DHT22;4744;52.576;13.568;2022-11-23T08:34:43;1.10;1.00
9410;DHT22;4744;52.576;13.568;2022-11-23T08:37:10;1.10;1.00
9410;DHT22;4744;52.576;13.568;2022-11-23T08:39:37;1.20;1.00
9410;DHT22;4744;52.576;13.568;2022-11-23T08:42:04;1.20;1.00
9410;DHT22;4744;52.576;13.568;2022-11-23T08:44:31;1.40;1.00
9410;DHT22;4744;52.576;13.568;2022-11-23T08:46:59;1.60;1.00
9410;DHT22;4744;52.576;13.568;2022-11-23T08:49:26;1.90;1.00
9410;DHT22;4744;52.576;13.568;2022-11-23T08:51:53;2.30;1.00
9410;DHT22;4744;52.576;13.568;2022-11-23T08:54:21;2.90;1.00
9410;DHT22;4744;52.576;13.568;2022-11-23T08:56:49;3.30;1.00
9410;DHT22;4744;52.576;13.568;2022-11-23T08:59:16;3.90;1.00
9410;DHT22;4744;52.576;13.568;2022-11-23T09:01:43;4.50;1.00
9410;DHT22;4744;52.576;13.568;2022-11-23T09:04:11;5.00;1.00
9410;DHT22;4744;52.576;13.568;2022-11-23T09:06:38;5.30;1.00
9410;DHT22;4744;52.576;13.568;2022-11-23T09:09:06;5.50;1.00
9410;DHT22;4744;52.576;13.568;2022-11-23T09:11:33;5.70;1.00
9410;DHT22;4744;52.576;13.568;2022-11-23T09:14:01;5.90;1.00
9410;DHT22;4744;52.576;13.568;2022-11-23T09:16:28;5.70;1.00
9410;DHT22;4744;52.576;13.568;2022-11-23T09:18:56;5.40;1.00
9410;DHT22;4744;52.576;13.568;2022-11-23T09:21:24;5.10;1.00
9410;DHT22;4744;52.576;13.568;2022-11-23T09:23:56;5.10;1.00
9410;DHT22;4744;52.576;13.568;2022-11-23T09:26:23;5.60;1.00
9410;DHT22;4744;52.576;13.568;2022-11-23T09:28:50;6.50;1.00
9410;DHT22;4744;52.576;13.568;2022-11-23T09:31:17;7.20;1.00
9410;DHT22;4744;52.576;13.568;2022-11-23T09:33:44;7.80;1.00
9410;DHT22;4744;52.576;13.568;2022-11-23T09:36:11;8.00;1.00
9410;DHT22;4744;52.576;13.568;2022-11-23T09:38:39;8.50;1.00
9410;DHT22;4744;52.576;13.568;2022-11-23T09:41:20;9.10;1.00
9410;DHT22;4744;52.576;13.568;2022-11-23T09:43:56;9.50;1.00
9410;DHT22;4744;52.576;13.568;2022-11-23T09:46:34;9.40;1.00
9410;DHT22;4744;52.576;13.568;2022-11-23T09:49:11;9.20;1.00
9410;DHT22;4744;52.576;13.568;2022-11-23T09:51:40;8.50;1.00
9410;DHT22;4744;52.576;13.568;2022-11-23T09:54:24;7.80;1.00
9410;DHT22;4744;52.576;13.568;2022-11-23T09:56:54;7.00;1.00
9410;DHT22;4744;52.576;13.568;2022-11-23T09:59:39;6.40;1.00
9410;DHT22;4744;52.576;13.568;2022-11-23T10:02:14;6.10;1.00
9410;DHT22;4744;52.576;13.568;2022-11-23T10:04:48;6.10;1.00
9410;DHT22;4744;52.576;13.568;2022-11-23T10:07:31;6.30;1.00
9410;DHT22;4744;52.576;13.568;2022-11-23T10:10:08;6.30;1.00
9410;DHT22;4744;52.576;13.568;2022-11-23T10:12:44;6.20;1.00
9410;DHT22;4744;52.576;13.568;2022-11-23T10:15:23;5.90;1.00
9410;DHT22;4744;52.576;13.568;2022-11-23T10:18:02;5.60;1.00
9410;DHT22;4744;52.576;13.568;2022-11-23T10:20:51;5.40;1.00
9410;DHT22;4744;52.576;13.568;2022-11-23T10:23:31;5.20;1.00
9410;DHT22;4744;52.576;13.568;2022-11-23T10:26:01;5.00;1.00
9410;DHT22;4744;52.576;13.568;2022-11-23T10:28:29;5.00;1.00
9410;DHT22;4744;52.576;13.568;2022-11-23T10:31:06;5.30;1.00
9410;DHT22;4744;52.576;13.568;2022-11-23T10:33:41;5.80;1.00
9410;DHT22;4744;52.576;13.568;2022-11-23T10:36:12;6.20;1.00
9410;DHT22;4744;52.576;13.568;2022-11-23T10:38:39;6.70;1.00
9410;DHT22;4744;52.576;13.568;2022-11-23T10:41:09;7.10;1.00
9410;DHT22;4744;52.576;13.568;2022-11-23T10:43:41;7.30;1.00
9410;DHT22;4744;52.576;13.568;2022-11-23T10:46:25;7.20;1.00
9410;DHT22;4744;52.576;13.568;2022-11-23T10:48:53;7.10;1.00
9410;DHT22;4744;52.576;13.568;2022-11-23T10:51:26;7.10;1.00
9410;DHT22;4744;52.576;13.568;2022-11-23T10:53:56;7.50;1.00
9410;DHT22;4744;52.576;13.568;2022-11-23T10:56:25;7.70;1.00
9410;DHT22;4744;52.576;13.568;2022-11-23T10:58:52;7.80;1.00
9410;DHT22;4744;52.576;13.568;2022-11-23T11:01:24;8.00;1.00
9410;DHT22;4744;52.576;13.568;2022-11-23T11:03:53;7.80;1.00
9410;DHT22;4744;52.576;13.568;2022-11-23T11:06:22;7.60;1.00
9410;DHT22;4744;52.576;13.568;2022-11-23T11:08:51;7.60;1.00
9410;DHT22;4744;52.576;13.568;2022-11-23T11:11:26;7.90;1.00
9410;DHT22;4744;52.576;13.568;2022-11-23T11:14:04;8.10;1.00
9410;DHT22;4744;52.576;13.568;2022-11-23T11:16:33;8.00;1.00
9410;DHT22;4744;52.576;13.568;2022-11-23T11:19:21;7.80;1.00
9410;DHT22;4744;52.576;13.568;2022-11-23T11:21:48;7.60;1.00
9410;DHT22;4744;52.576;13.568;2022-11-23T11:24:18;7.50;1.00
9410;DHT22;4744;52.576;13.568;2022-11-23T11:26:49;8.00;1.00
9410;DHT22;4744;52.576;13.568;2022-11-23T11:29:30;8.70;1.00
9410;DHT22;4744;52.576;13.568;2022-11-23T11:32:01;9.20;1.00
9410;DHT22;4744;52.576;13.568;2022-11-23T11:34:32;9.10;1.00
9410;DHT22;4744;52.576;13.568;2022-11-23T11:37:06;8.80;1.00
9410;DHT22;4744;52.576;13.568;2022-11-23T11:39:38;8.60;1.00
9410;DHT22;4744;52.576;13.568;2022-11-23T11:42:15;8.40;1.00
9410;DHT22;4744;52.576;13.568;2022-11-23T11:44:45;8.00;1.00
9410;DHT22;4744;52.576;13.568;2022-11-23T11:47:22;7.70;1.00
9410;DHT22;4744;52.576;13.568;2022-11-23T11:49:52;7.50;1.00
9410;DHT22;4744;52.576;13.568;2022-11-23T11:52:22;7.20;1.00
9410;DHT22;4744;52.576;13.568;2022-11-23T11:54:54;6.90;1.00
9410;DHT22;4744;52.576;13.568;2022-11-23T11:57:27;6.70;1.00
9410;DHT22;4744;52.576;13.568;2022-11-23T11:59:57;6.50;1.00
9410;DHT22;4744;52.576;13.568;2022-11-23T12:02:30;6.40;1.00
9410;DHT22;4744;52.576;13.568;2022-11-23T12:05:06;6.30;1.00
9410;DHT22;4744;52.576;13.568;2022-11-23T12:07:41;6.30;1.00
9410;DHT22;4744;52.576;13.568;2022-11-23T12:10:13;6.30;1.00
9410;DHT22;4744;52.576;13.568;2022-11-23T12:12:42;6.30;1.00
9410;DHT22;4744;52.576;13.568;2022-11-23T12:15:16;6.40;1.00
9410;DHT22;4744;52.576;13.568;2022-11-23T12:17:56;6.50;1.00
9410;DHT22;4744;52.576;13.568;2022-11-23T12:20:39;6.50;1.00
9410;DHT22;4744;52.576;13.568;2022-11-23T12:23:20;6.60;1.00
9410;DHT22;4744;52.576;13.568;2022-11-23T12:25:55;6.50;1.00
9410;DHT22;4744;52.576;13.568;2022-11-23T12:31:30;6.50;1.00
9410;DHT22;4744;52.576;13.568;2022-11-23T12:34:19;6.40;1.00
9410;DHT22;4744;52.576;13.568;2022-11-23T12:37:00;6.40;1.00
9410;DHT22;4744;52.576;13.568;2022-11-23T12:42:38;6.40;1.00
9410;DHT22;4744;52.576;13.568;2022-11-23T12:45:24;6.40;1.00
9410;DHT22;4744;52.576;13.568;2022-11-23T12:48:01;6.40;1.00
9410;DHT22;4744;52.576;13.568;2022-11-23T12:50:33;6.50;1.00
9410;DHT22;4744;52.576;13.568;2022-11-23T12:53:17;6.50;1.00
9410;DHT22;4744;52.576;13.568;2022-11-23T12:55:51;6.50;1.00
9410;DHT22;4744;52.576;13.568;2022-11-23T12:58:23;6.50;1.00
9410;DHT22;4744;52.576;13.568;2022-11-23T13:00:55;6.50;1.00
9410;DHT22;4744;52.576;13.568;2022-11-23T13:03:51;6.60;1.00
9410;DHT22;4744;52.576;13.568;2022-11-23T13:06:42;6.60;1.00
9410;DHT22;4744;52.576;13.568;2022-11-23T13:12:20;6.40;1.00
9410;DHT22;4744;52.576;13.568;2022-11-23T13:15:02;6.30;1.00
9410;DHT22;4744;52.576;13.568;2022-11-23T13:17:45;6.30;1.00
9410;DHT22;4744;52.576;13.568;2022-11-23T13:20:38;6.20;1.00
9410;DHT22;4744;52.576;13.568;2022-11-23T13:23:08;6.20;1.00
9410;DHT22;4744;52.576;13.568;2022-11-23T13:25:35;6.20;1.00
9410;DHT22;4744;52.576;13.568;2022-11-23T13:28:04;6.30;1.00
9410;DHT22;4744;52.576;13.568;2022-11-23T13:30:33;6.30;1.00
9410;DHT22;4744;52.576;13.568;2022-11-23T13:33:26;6.40;1.00
9410;DHT22;4744;52.576;13.568;2022-11-23T13:35:56;6.40;1.00
9410;DHT22;4744;52.576;13.568;2022-11-23T13:38:37;6.50;1.00
9410;DHT22;4744;52.576;13.568;2022-11-23T13:44:11;6.40;1.00
9410;DHT22;4744;52.576;13.568;2022-11-23T13:46:42;6.40;1.00
9410;DHT22;4744;52.576;13.568;2022-11-23T13:49:30;6.30;1.00
9410;DHT22;4744;52.576;13.568;2022-11-23T13:52:25;6.30;1.00
9410;DHT22;4744;52.576;13.568;2022-11-23T13:54:54;6.20;1.00
9410;DHT22;4744;52.576;13.568;2022-11-23T13:57:22;6.10;1.00
9410;DHT22;4744;52.576;13.568;2022-11-23T13:59:50;6.10;1.00
9410;DHT22;4744;52.576;13.568;2022-11-23T14:02:27;6.00;1.00
9410;DHT22;4744;52.576;13.568;2022-11-23T14:05:30;5.90;1.00
9410;DHT22;4744;52.576;13.568;2022-11-23T14:08:16;5.80;1.00
9410;DHT22;4744;52.576;13.568;2022-11-23T14:10:44;5.70;1.00
9410;DHT22;4744;52.576;13.568;2022-11-23T14:13:15;5.60;1.00
9410;DHT22;4744;52.576;13.568;2022-11-23T14:15:56;5.50;1.00
9410;DHT22;4744;52.576;13.568;2022-11-23T14:18:55;5.50;1.00
9410;DHT22;4744;52.576;13.568;2022-11-23T14:21:33;5.40;1.00
9410;DHT22;4744;52.576;13.568;2022-11-23T14:27:21;5.30;1.00
9410;DHT22;4744;52.576;13.568;2022-11-23T14:30:04;5.20;1.00
9410;DHT22;4744;52.576;13.568;2022-11-23T14:32:43;5.10;1.00
9410;DHT22;4744;52.576;13.568;2022-11-23T14:35:22;5.10;1.00
9410;DHT22;4744;52.576;13.568;2022-11-23T14:38:25;4.90;1.00
9410;DHT22;4744;52.576;13.568;2022-11-23T14:41:01;4.80;1.00
9410;DHT22;4744;52.576;13.568;2022-11-23T14:43:30;4.80;1.00
9410;DHT22;4744;52.576;13.568;2022-11-23T14:46:00;4.70;1.00
9410;DHT22;4744;52.576;13.568;2022-11-23T14:48:28;4.60;1.00
9410;DHT22;4744;52.576;13.568;2022-11-23T14:50:57;4.50;1.00
9410;DHT22;4744;52.576;13.568;2022-11-23T14:53:29;4.40;1.00
9410;DHT22;4744;52.576;13.568;2022-11-23T14:55:56;4.40;1.00
9410;DHT22;4744;52.576;13.568;2022-11-23T14:58:24;4.30;1.00
9410;DHT22;4744;52.576;13.568;2022-11-23T15:00:58;4.20;1.00
9410;DHT22;4744;52.576;13.568;2022-11-23T15:03:27;4.10;1.00
9410;DHT22;4744;52.576;13.568;2022-11-23T15:06:01;4.00;1.00
9410;DHT22;4744;52.576;13.568;2022-11-23T15:08:38;4.00;1.00
9410;DHT22;4744;52.576;13.568;2022-11-23T15:11:09;3.90;1.00
9410;DHT22;4744;52.576;13.568;2022-11-23T15:13:42;3.80;1.00
9410;DHT22;4744;52.576;13.568;2022-11-23T15:16:11;3.80;1.00
9410;DHT22;4744;52.576;13.568;2022-11-23T15:18:38;3.60;1.00
9410;DHT22;4744;52.576;13.568;2022-11-23T15:21:15;3.60;1.00
9410;DHT22;4744;52.576;13.568;2022-11-23T15:23:46;3.50;1.00
9410;DHT22;4744;52.576;13.568;2022-11-23T15:26:15;3.50;1.00
9410;DHT22;4744;52.576;13.568;2022-11-23T15:28:43;3.40;1.00
9410;DHT22;4744;52.576;13.568;2022-11-23T15:31:28;3.40;1.00
9410;DHT22;4744;52.576;13.568;2022-11-23T15:33:58;3.30;1.00
9410;DHT22;4744;52.576;13.568;2022-11-23T15:36:30;3.30;1.00
9410;DHT22;4744;52.576;13.568;2022-11-23T15:39:00;3.20;1.00
9410;DHT22;4744;52.576;13.568;2022-11-23T15:41:29;3.10;1.00
9410;DHT22;4744;52.576;13.568;2022-11-23T15:43:58;3.10;1.00
9410;DHT22;4744;52.576;13.568;2022-11-23T15:46:27;3.00;1.00
9410;DHT22;4744;52.576;13.568;2022-11-23T15:48:56;3.00;1.00
9410;DHT22;4744;52.576;13.568;2022-11-23T15:51:28;3.00;1.00
9410;DHT22;4744;52.576;13.568;2022-11-23T15:53:59;2.90;1.00
9410;DHT22;4744;52.576;13.568;2022-11-23T15:56:28;2.90;1.00
9410;DHT22;4744;52.576;13.568;2022-11-23T15:58:58;2.90;1.00
9410;DHT22;4744;52.576;13.568;2022-11-23T16:01:26;2.90;1.00
9410;DHT22;4744;52.576;13.568;2022-11-23T16:03:55;2.80;1.00
9410;DHT22;4744;52.576;13.568;2022-11-23T16:06:33;2.80;1.00
9410;DHT22;4744;52.576;13.568;2022-11-23T16:09:03;2.80;1.00
9410;DHT22;4744;52.576;13.568;2022-11-23T16:11:50;2.80;1.00
9410;DHT22;4744;52.576;13.568;2022-11-23T16:14:19;2.80;1.00
9410;DHT22;4744;52.576;13.568;2022-11-23T16:16:47;2.70;1.00
9410;DHT22;4744;52.576;13.568;2022-11-23T16:19:29;2.70;1.00
9410;DHT22;4744;52.576;13.568;2022-11-23T16:22:00;2.60;1.00
9410;DHT22;4744;52.576;13.568;2022-11-23T16:24:30;2.60;1.00
9410;DHT22;4744;52.576;13.568;2022-11-23T16:26:58;2.60;1.00
9410;DHT22;4744;52.576;13.568;2022-11-23T16:29:34;2.60;1.00
9410;DHT22;4744;52.576;13.568;2022-11-23T16:32:02;2.60;1.00
9410;DHT22;4744;52.576;13.568;2022-11-23T16:34:32;2.50;1.00
9410;DHT22;4744;52.576;13.568;2022-11-23T16:37:00;2.50;1.00
9410;DHT22;4744;52.576;13.568;2022-11-23T16:39:29;2.50;1.00
9410;DHT22;4744;52.576;13.568;2022-11-23T16:41:56;2.50;1.00
9410;DHT22;4744;52.576;13.568;2022-11-23T16:44:23;2.50;1.00
9410;DHT22;4744;52.576;13.568;2022-11-23T16:46:50;2.50;1.00
9410;DHT22;4744;52.576;13.568;2022-11-23T16:49:19;2.50;1.00
9410;DHT22;4744;52.576;13.568;2022-11-23T16:51:47;2.50;1.00
9410;DHT22;4744;52.576;13.568;2022-11-23T16:54:15;2.50;1.00